Gold Canyon, Arizona
Current Conditions -  °F | °C
As of 2:48 PM on Thursday 23 Oct 2014 (Local Time) from KIWA Reporting Station
Few Clouds Few Clouds  
Wind Chill: 90°   Ceiling: Unl
Heat Index: 90°   Visibility: 45mi
Dew Point: 48°   Wind: 3mph
Humidity: 24%   Direction: 110°ESE
Pressure: 29.97"   Gusts: NA
Location:  33.2782°N, 111.363°W
Report Text: KIWA 232148Z 11003KT 45SM FEW250 32/09 A2997
Loading
Personal Weather Stations






























Interactive Weather Map
Tropical Storm Tracking
New forecast layout! Learn more

10-Day Weather Forecast

Advertisements
Track Severe Weather on mobile